Time;durP1;ratioP1;P1;durP2;ratioP2;P2;SDS_P1;SDS_P2;PMS_P1;PMS_P2;Temp;Humidity;BMP_temperature;BMP_pressure;BME280_temperature;BME280_humidity;BME280_pressure;Samples;Min_cycle;Max_cycle;Signal;HPM_P1;HPM_P2
2023/06/16 00:01:41;;;;;;;23.10;13.05;;;;;;;19.50;42.97;99675.13;5084925;28;20044;-64
2023/06/16 00:04:08;;;;;;;24.25;14.30;;;;;;;19.52;42.54;99675.78;5073071;28;20064;-66
2023/06/16 00:06:33;;;;;;;21.63;13.98;;;;;;;19.46;42.57;99669.25;5074704;28;20094;-61
2023/06/16 00:09:00;;;;;;;22.48;13.95;;;;;;;19.49;42.31;99681.59;5074634;28;20036;-60
2023/06/16 00:11:27;;;;;;;27.48;15.73;;;;;;;19.45;42.06;99675.72;5073518;28;20020;-62
2023/06/16 00:13:55;;;;;;;26.58;16.10;;;;;;;19.53;41.88;99682.09;5074101;28;20029;-62
2023/06/16 00:16:22;;;;;;;22.73;15.88;;;;;;;19.48;42.21;99678.06;5074328;28;20037;-61
2023/06/16 00:18:53;;;;;;;26.17;17.48;;;;;;;19.52;42.44;99678.50;5075082;28;20078;-62
2023/06/16 00:21:25;;;;;;;26.20;18.05;;;;;;;19.51;43.06;99683.09;5074418;28;20047;-60
2023/06/16 00:23:52;;;;;;;21.98;17.23;;;;;;;19.05;43.20;99621.66;5084427;28;20486;-60
2023/06/16 00:26:17;;;;;;;24.92;16.63;;;;;;;19.38;43.44;99676.63;5074161;28;20557;-63
2023/06/16 00:28:43;;;;;;;25.77;20.25;;;;;;;19.35;43.44;99680.56;5073292;28;20032;-62
2023/06/16 00:31:09;;;;;;;25.00;17.98;;;;;;;19.29;43.49;99676.72;5073379;28;20027;-62
2023/06/16 00:33:35;;;;;;;27.25;17.48;;;;;;;19.33;43.11;99686.19;5074261;28;20086;-60
2023/06/16 00:36:01;;;;;;;22.65;15.88;;;;;;;19.30;42.99;99683.84;5073897;28;20102;-60
2023/06/16 00:38:27;;;;;;;24.33;14.95;;;;;;;19.30;42.84;99685.69;5074952;28;20691;-61
2023/06/16 00:40:53;;;;;;;25.52;15.60;;;;;;;19.25;43.00;99675.38;5071334;28;20029;-62
2023/06/16 00:43:19;;;;;;;26.60;15.18;;;;;;;19.25;43.51;99680.00;5072579;28;20024;-62
2023/06/16 00:45:44;;;;;;;20.67;14.68;;;;;;;19.24;43.26;99683.72;5072745;28;20036;-61
2023/06/16 00:48:10;;;;;;;22.42;14.65;;;;;;;19.17;43.38;99683.63;5072389;28;20059;-63
2023/06/16 00:50:36;;;;;;;23.92;14.23;;;;;;;19.12;43.53;99680.63;5071834;28;20037;-61
2023/06/16 00:53:02;;;;;;;21.63;14.27;;;;;;;19.14;43.64;99686.69;5072425;28;20032;-62
2023/06/16 00:55:28;;;;;;;22.98;14.27;;;;;;;18.91;43.57;99647.69;5072345;28;20028;-61
2023/06/16 00:57:54;;;;;;;21.45;14.32;;;;;;;19.10;43.58;99677.25;5072087;28;20028;-61
2023/06/16 01:00:22;;;;;;;23.05;13.38;;;;;;;19.11;43.45;99682.47;5071993;28;20443;-62
2023/06/16 01:02:48;;;;;;;21.52;14.27;;;;;;;19.12;43.74;99688.75;5071953;28;20039;-61
2023/06/16 01:05:17;;;;;;;21.35;13.38;;;;;;;19.08;43.79;99691.84;5070659;28;20037;-63
2023/06/16 01:07:51;;;;;;;21.90;13.65;;;;;;;19.18;43.92;99693.44;5071945;28;20075;-60
2023/06/16 01:10:37;;;;;;;19.98;13.75;;;;;;;19.18;43.78;99688.00;5072466;28;20036;-61
2023/06/16 01:13:12;;;;;;;19.00;13.60;;;;;;;19.14;43.81;99692.97;5071712;28;20447;-60
2023/06/16 01:15:43;;;;;;;20.42;12.40;;;;;;;19.13;44.13;99685.03;5072020;28;20097;-60
2023/06/16 01:18:10;;;;;;;22.58;12.82;;;;;;;19.08;44.00;99689.13;5072033;28;20082;-61
2023/06/16 01:21:10;;;;;;;19.38;13.05;;;;;;;19.05;44.02;99666.94;5072188;28;20060;-61
2023/06/16 01:24:01;;;;;;;21.13;12.88;;;;;;;19.20;43.62;99689.53;5058304;28;20044;-61
2023/06/16 01:26:31;;;;;;;16.58;12.00;;;;;;;19.11;44.50;99687.91;5079950;28;20104;-61
2023/06/16 01:29:02;;;;;;;19.48;11.93;;;;;;;19.21;44.17;99693.06;5076362;28;20320;-60
2023/06/16 01:31:31;;;;;;;18.55;10.38;;;;;;;19.23;44.54;99693.72;5073139;28;20035;-62
2023/06/16 01:33:59;;;;;;;19.05;12.18;;;;;;;19.22;44.41;99679.34;5073187;28;20028;-62
2023/06/16 01:36:25;;;;;;;17.15;11.02;;;;;;;19.26;44.08;99674.34;5072365;28;20029;-61
2023/06/16 01:38:53;;;;;;;17.15;11.05;;;;;;;19.35;43.57;99691.41;5082047;28;20036;-62
2023/06/16 01:41:19;;;;;;;20.30;11.00;;;;;;;19.28;43.55;99672.31;5089957;28;20059;-62
2023/06/16 01:43:47;;;;;;;19.27;10.85;;;;;;;19.33;43.78;99675.31;5089735;28;20457;-62
2023/06/16 01:46:13;;;;;;;15.85;11.13;;;;;;;19.40;44.12;99678.13;5091351;28;20366;-67
2023/06/16 01:48:39;;;;;;;17.90;10.52;;;;;;;19.41;44.59;99677.13;5084043;28;20094;-60
2023/06/16 01:51:05;;;;;;;14.93;9.82;;;;;;;19.37;44.31;99681.22;5079703;28;20028;-61
2023/06/16 01:53:31;;;;;;;20.10;10.35;;;;;;;19.37;43.99;99673.06;5080040;28;20046;-65
2023/06/16 01:55:56;;;;;;;18.98;9.43;;;;;;;19.43;43.81;99674.22;5077525;28;20421;-62
2023/06/16 01:58:25;;;;;;;14.88;9.10;;;;;;;19.44;44.15;99686.75;5093899;28;20099;-62
2023/06/16 02:01:05;;;;;;;15.07;9.43;;;;;;;19.49;44.15;99674.31;5092202;28;20064;-61
2023/06/16 02:03:52;;;;;;;15.43;9.23;;;;;;;19.43;43.79;99661.50;5094353;28;20028;-61
2023/06/16 02:06:30;;;;;;;13.73;8.70;;;;;;;19.56;44.46;99685.28;5096674;28;20034;-62
2023/06/16 02:08:59;;;;;;;17.60;8.32;;;;;;;19.50;44.41;99683.28;5094271;28;20035;-62
2023/06/16 02:11:25;;;;;;;14.02;8.50;;;;;;;19.47;44.60;99683.66;5093107;28;20097;-61
2023/06/16 02:13:52;;;;;;;20.05;9.10;;;;;;;19.52;44.30;99689.38;5092541;28;20169;-61
2023/06/16 02:16:19;;;;;;;14.32;9.27;;;;;;;19.55;44.70;99669.16;5092858;28;20054;-61
2023/06/16 02:18:45;;;;;;;15.88;9.15;;;;;;;19.73;44.29;99675.06;5091341;28;20051;-65
2023/06/16 02:21:10;;;;;;;12.50;9.02;;;;;;;19.90;43.22;99662.13;5096146;28;20040;-61
2023/06/16 02:23:36;;;;;;;12.93;9.45;;;;;;;20.12;42.79;99667.66;5084528;28;20029;-62
2023/06/16 02:26:02;;;;;;;15.30;8.45;;;;;;;20.29;41.66;99656.56;5074590;28;20054;-61
2023/06/16 02:28:27;;;;;;;17.38;9.68;;;;;;;20.54;42.31;99673.34;5076693;28;20347;-62
2023/06/16 02:30:53;;;;;;;16.83;8.65;;;;;;;20.79;41.32;99668.41;5086745;28;20442;-61
2023/06/16 02:33:20;;;;;;;13.80;8.40;;;;;;;21.06;41.06;99663.19;5076023;28;20104;-62
2023/06/16 02:35:45;;;;;;;13.23;8.38;;;;;;;21.45;40.30;99665.56;5075389;28;20044;-65
2023/06/16 02:38:11;;;;;;;12.30;8.30;;;;;;;21.94;39.19;99659.19;5074900;28;20042;-61
2023/06/16 02:40:37;;;;;;;13.00;8.48;;;;;;;22.27;37.85;99654.88;5073828;28;20405;-63
2023/06/16 02:43:02;;;;;;;13.18;8.50;;;;;;;22.59;37.00;99657.09;5076067;28;20416;-62
2023/06/16 02:45:28;;;;;;;10.70;8.63;;;;;;;22.89;37.09;99670.34;5073438;28;20028;-62
2023/06/16 02:47:53;;;;;;;13.27;8.48;;;;;;;23.04;36.68;99657.34;5074154;28;20103;-61
2023/06/16 02:50:20;;;;;;;10.52;8.48;;;;;;;23.15;36.29;99664.06;5075151;28;20093;-61
2023/06/16 02:52:48;;;;;;;10.13;8.80;;;;;;;23.15;36.08;99660.47;5076052;28;20039;-67
2023/06/16 02:55:15;;;;;;;17.25;8.50;;;;;;;23.16;36.08;99654.00;5075032;28;20028;-62
2023/06/16 02:57:41;;;;;;;12.02;8.25;;;;;;;23.48;35.80;99654.19;5073446;28;20417;-61
2023/06/16 03:00:10;;;;;;;11.48;8.02;;;;;;;23.84;35.38;99655.53;5075367;28;20116;-61
2023/06/16 03:02:36;;;;;;;9.88;8.32;;;;;;;24.40;33.85;99642.28;5083363;28;20047;-62
2023/06/16 03:05:04;;;;;;;12.05;8.13;;;;;;;25.02;32.86;99652.59;5093506;28;20415;-62
2023/06/16 03:07:34;;;;;;;15.18;8.15;;;;;;;25.67;32.12;99649.69;5077642;28;20060;-61
2023/06/16 03:10:00;;;;;;;11.38;7.72;;;;;;;25.91;31.30;99596.66;5053154;28;20104;-61
2023/06/16 03:12:26;;;;;;;11.23;8.20;;;;;;;26.70;29.33;99641.59;5063281;28;20112;-61
2023/06/16 03:14:51;;;;;;;12.00;7.75;;;;;;;27.27;28.87;99648.50;5093022;28;20034;-62
2023/06/16 03:17:20;;;;;;;14.57;7.85;;;;;;;27.83;27.35;99652.75;5093399;28;20043;-65
2023/06/16 03:19:47;;;;;;;17.15;8.15;;;;;;;28.10;27.37;99655.81;5054377;28;20067;-62
2023/06/16 03:22:13;;;;;;;13.50;8.02;;;;;;;28.07;27.03;99637.84;5079082;28;20041;-63
2023/06/16 03:24:41;;;;;;;12.35;7.80;;;;;;;28.30;26.71;99649.06;5092092;28;20036;-62
2023/06/16 03:27:08;;;;;;;11.10;7.82;;;;;;;28.39;26.75;99664.09;5094093;28;20032;-62
2023/06/16 03:29:34;;;;;;;15.50;8.05;;;;;;;28.49;27.07;99658.81;5076014;28;20482;-62
2023/06/16 03:32:00;;;;;;;10.50;7.45;;;;;;;28.27;26.38;99631.13;5074329;28;20032;-62
2023/06/16 03:34:26;;;;;;;11.88;8.43;;;;;;;28.54;27.08;99658.03;5086306;28;20032;-61
2023/06/16 03:36:52;;;;;;;11.30;7.20;;;;;;;28.71;27.02;99649.81;5073461;28;20474;-61
2023/06/16 03:39:17;;;;;;;11.57;7.57;;;;;;;29.07;26.22;99652.38;5089308;28;20068;-62
2023/06/16 03:41:44;;;;;;;15.23;7.90;;;;;;;29.39;26.08;99648.13;5094135;28;20024;-62
2023/06/16 03:44:10;;;;;;;10.63;7.38;;;;;;;29.68;24.86;99642.53;5091501;28;20040;-62
2023/06/16 03:46:35;;;;;;;14.02;8.00;;;;;;;29.91;24.38;99647.78;5073496;28;20040;-63
2023/06/16 03:49:01;;;;;;;12.95;8.10;;;;;;;30.08;24.36;99635.84;5074801;28;20036;-63
2023/06/16 03:51:26;;;;;;;12.65;7.82;;;;;;;30.07;23.64;99620.38;5073650;28;20162;-62
2023/06/16 03:53:52;;;;;;;11.88;8.25;;;;;;;30.18;24.18;99641.50;5075024;28;20351;-62
2023/06/16 03:56:20;;;;;;;14.02;7.35;;;;;;;30.32;23.56;99643.84;5073338;28;20032;-64
2023/06/16 03:58:48;;;;;;;10.82;7.47;;;;;;;30.38;23.18;99640.03;5073754;28;20123;-64
2023/06/16 04:01:14;;;;;;;17.23;7.43;;;;;;;30.72;23.03;99645.38;5074117;28;20040;-63
2023/06/16 04:03:40;;;;;;;14.30;8.15;;;;;;;31.18;22.71;99630.25;5086388;28;20063;-63
2023/06/16 04:06:06;;;;;;;12.05;7.13;;;;;;;31.90;21.87;99644.53;5093605;28;20048;-63
2023/06/16 04:08:32;;;;;;;11.52;7.00;;;;;;;32.22;21.38;99638.00;5090647;28;20043;-63
2023/06/16 04:10:58;;;;;;;11.50;6.97;;;;;;;32.40;21.11;99624.78;5092221;28;20110;-64
2023/06/16 04:13:26;;;;;;;10.70;7.10;;;;;;;32.95;20.92;99654.75;5091778;28;20492;-62
2023/06/16 04:15:51;;;;;;;17.67;7.07;;;;;;;33.41;20.38;99636.41;5091648;28;20032;-64
2023/06/16 04:18:17;;;;;;;12.07;7.40;;;;;;;34.02;19.45;99637.34;5076164;28;20119;-62
2023/06/16 04:20:43;;;;;;;10.30;6.72;;;;;;;34.16;19.20;99624.47;5074549;28;20097;-62
2023/06/16 04:23:09;;;;;;;11.02;6.75;;;;;;;34.64;18.91;99637.81;5080830;28;20489;-66
2023/06/16 04:25:37;;;;;;;12.25;6.70;;;;;;;34.85;18.76;99622.91;5093332;28;20024;-64
2023/06/16 04:28:03;;;;;;;11.48;6.97;;;;;;;35.16;18.71;99642.09;5091562;28;20032;-63
2023/06/16 04:30:30;;;;;;;11.20;6.68;;;;;;;35.08;18.48;99612.97;5089665;28;20645;-64
2023/06/16 04:32:59;;;;;;;17.30;7.53;;;;;;;35.57;18.23;99640.88;5091158;28;20292;-63
2023/06/16 04:35:31;;;;;;;10.20;6.75;;;;;;;35.83;17.85;99644.19;5092974;28;20035;-63
2023/06/16 04:37:58;;;;;;;12.50;6.55;;;;;;;35.81;17.22;99645.59;5090382;28;20028;-62
2023/06/16 04:40:25;;;;;;;14.07;6.65;;;;;;;35.89;17.12;99642.97;5072915;28;20032;-63
2023/06/16 04:42:50;;;;;;;10.23;6.00;;;;;;;36.45;16.54;99628.59;5073859;28;20111;-62
2023/06/16 04:45:16;;;;;;;9.52;6.15;;;;;;;37.22;16.09;99637.66;5072317;28;20111;-59
2023/06/16 04:47:44;;;;;;;14.55;6.28;;;;;;;37.76;15.48;99638.03;5076082;28;20024;-60
2023/06/16 04:50:11;;;;;;;14.27;6.22;;;;;;;37.49;15.03;99622.09;5072057;28;20082;-57
2023/06/16 04:52:37;;;;;;;9.30;6.13;;;;;;;37.37;15.24;99650.50;5071822;28;20020;-56
2023/06/16 04:55:05;;;;;;;9.15;5.95;;;;;;;38.17;14.85;99650.31;5072231;28;20086;-59
2023/06/16 04:57:33;;;;;;;12.20;5.90;;;;;;;38.69;14.15;99649.13;5092567;28;20043;-60
2023/06/16 05:00:00;;;;;;;10.45;6.10;;;;;;;38.82;13.63;99640.97;5093038;28;20032;-59
2023/06/16 05:02:26;;;;;;;8.80;5.53;;;;;;;38.71;13.62;99651.63;5093095;28;20465;-55
2023/06/16 05:04:52;;;;;;;7.93;6.03;;;;;;;38.67;13.46;99636.59;5092851;28;20035;-59
2023/06/16 05:07:18;;;;;;;8.88;5.60;;;;;;;38.14;13.83;99645.34;5092775;28;20028;-57
2023/06/16 05:09:43;;;;;;;9.65;5.90;;;;;;;36.96;15.25;99624.16;5092936;28;20490;-59
2023/06/16 05:12:09;;;;;;;7.85;5.88;;;;;;;36.03;16.69;99648.69;5090729;28;20458;-59
2023/06/16 05:14:35;;;;;;;7.72;5.88;;;;;;;35.46;16.92;99648.50;5092419;28;20043;-65
2023/06/16 05:17:01;;;;;;;11.02;6.13;;;;;;;35.25;16.79;99645.09;5072947;28;20040;-56
2023/06/16 05:19:27;;;;;;;12.43;6.95;;;;;;;35.98;16.47;99659.06;5071389;28;20040;-55
2023/06/16 05:21:52;;;;;;;10.57;6.43;;;;;;;37.32;14.54;99654.22;5072712;28;20032;-57
2023/06/16 05:24:18;;;;;;;10.57;6.78;;;;;;;38.00;14.37;99650.13;5072357;28;20028;-57
2023/06/16 05:26:43;;;;;;;8.73;5.80;;;;;;;38.60;13.91;99648.25;5071957;28;20850;-60
2023/06/16 05:29:09;;;;;;;8.23;5.97;;;;;;;39.85;12.94;99655.06;5072465;28;20028;-60
2023/06/16 05:31:37;;;;;;;9.60;6.22;;;;;;;41.05;12.08;99668.97;5072120;28;20130;-59
2023/06/16 05:34:03;;;;;;;10.85;6.72;;;;;;;42.03;11.08;99651.41;5072227;28;20076;-61
2023/06/16 05:36:30;;;;;;;9.95;6.45;;;;;;;42.74;9.98;99636.78;5072550;28;20068;-58
2023/06/16 05:38:56;;;;;;;8.90;5.80;;;;;;;42.94;10.54;99654.84;5072288;28;20032;-62
2023/06/16 05:41:24;;;;;;;7.18;5.25;;;;;;;43.05;9.82;99657.19;5072517;28;20111;-56
2023/06/16 05:43:57;;;;;;;8.25;5.30;;;;;;;43.33;9.71;99642.47;5071273;28;20032;-59
2023/06/16 05:46:22;;;;;;;8.02;5.20;;;;;;;43.24;10.05;99629.31;5072574;28;20057;-59
2023/06/16 05:48:48;;;;;;;9.05;5.50;;;;;;;43.68;9.57;99645.66;5072513;28;20504;-59
2023/06/16 05:51:14;;;;;;;8.57;5.30;;;;;;;43.95;9.42;99648.94;5073442;28;20082;-59
2023/06/16 05:53:40;;;;;;;9.50;5.55;;;;;;;44.25;9.55;99642.22;5071315;28;20037;-57
2023/06/16 05:56:05;;;;;;;5.95;4.82;;;;;;;44.40;9.14;99635.81;5084091;28;20129;-60
2023/06/16 05:58:35;;;;;;;5.90;4.40;;;;;;;44.24;8.94;99644.19;5092404;28;20491;-56
2023/06/16 06:01:07;;;;;;;8.77;5.00;;;;;;;43.94;9.11;99649.31;5092179;28;20148;-58
2023/06/16 06:03:33;;;;;;;8.73;5.10;;;;;;;43.39;9.46;99638.25;5091254;28;20036;-58
2023/06/16 06:05:58;;;;;;;11.90;4.72;;;;;;;43.63;9.73;99651.53;5091078;28;20411;-59
2023/06/16 06:08:27;;;;;;;7.75;4.60;;;;;;;43.69;9.04;99636.03;5092428;28;20123;-59
2023/06/16 06:10:56;;;;;;;13.82;5.13;;;;;;;44.18;8.97;99645.63;5090450;28;20434;-59
2023/06/16 06:13:22;;;;;;;11.50;4.35;;;;;;;44.68;8.38;99632.19;5092226;28;20140;-58
2023/06/16 06:15:48;;;;;;;12.13;5.03;;;;;;;45.41;8.25;99645.44;5092263;28;20114;-59
2023/06/16 06:18:14;;;;;;;11.75;4.70;;;;;;;46.03;8.20;99636.38;5091847;28;20048;-58
2023/06/16 06:20:40;;;;;;;14.90;4.93;;;;;;;46.39;7.25;99637.19;5090055;28;20036;-57
2023/06/16 06:23:05;;;;;;;13.93;5.45;;;;;;;46.85;7.36;99635.69;5092016;28;20024;-58
2023/06/16 06:25:31;;;;;;;7.00;4.90;;;;;;;47.37;6.88;99624.06;5092208;28;20419;-57
2023/06/16 06:27:57;;;;;;;12.15;5.20;;;;;;;47.62;7.36;99624.44;5091475;28;20069;-59
2023/06/16 06:30:24;;;;;;;10.35;5.20;;;;;;;47.38;6.96;99632.19;5091925;28;20417;-57
2023/06/16 06:32:50;;;;;;;5.22;4.70;;;;;;;47.64;6.87;99638.25;5091903;28;20097;-58
2023/06/16 06:35:15;;;;;;;6.80;5.00;;;;;;;48.29;6.32;99637.19;5089392;28;20028;-61
2023/06/16 06:37:41;;;;;;;4.80;4.38;;;;;;;48.08;6.14;99642.56;5092465;28;20051;-59
2023/06/16 06:40:07;;;;;;;8.25;4.25;;;;;;;48.11;5.76;99621.94;5095457;28;20034;-58
2023/06/16 06:42:33;;;;;;;4.97;3.90;;;;;;;47.95;5.90;99630.63;5094598;28;20035;-60
2023/06/16 06:44:58;;;;;;;8.27;4.63;;;;;;;47.56;5.95;99631.66;5093569;28;20024;-68
2023/06/16 06:47:24;;;;;;;6.85;4.35;;;;;;;46.94;6.12;99622.09;5094762;28;20114;-60
2023/06/16 06:49:50;;;;;;;5.50;4.50;;;;;;;47.63;6.36;99613.94;5095411;28;20086;-59
2023/06/16 06:52:16;;;;;;;9.13;4.53;;;;;;;48.87;6.18;99627.75;5094142;28;20486;-59
2023/06/16 06:54:42;;;;;;;5.78;4.70;;;;;;;49.82;5.41;99625.25;5095487;28;20115;-58
2023/06/16 06:57:07;;;;;;;7.47;4.53;;;;;;;50.79;4.69;99623.25;5094541;28;20115;-59
2023/06/16 06:59:33;;;;;;;13.55;5.38;;;;;;;51.48;4.71;99615.56;5093937;28;20339;-61
2023/06/16 07:01:59;;;;;;;5.63;5.00;;;;;;;52.25;4.28;99622.69;5094747;28;20443;-60
2023/06/16 07:04:25;;;;;;;12.95;4.78;;;;;;;52.91;3.89;99614.56;5094500;28;20032;-59
2023/06/16 07:06:51;;;;;;;7.00;4.80;;;;;;;53.65;4.12;99616.38;5094757;28;20354;-58
2023/06/16 07:09:17;;;;;;;6.65;4.80;;;;;;;53.88;3.86;99616.97;5085820;28;20020;-59
2023/06/16 07:11:43;;;;;;;6.60;5.25;;;;;;;54.45;3.58;99617.50;5074217;28;20055;-62
2023/06/16 07:14:08;;;;;;;5.07;4.68;;;;;;;54.76;3.39;99618.28;5073432;28;20453;-61
2023/06/16 07:16:34;;;;;;;7.07;5.32;;;;;;;52.55;3.98;99614.78;5073844;28;20043;-59
2023/06/16 07:19:01;;;;;;;6.18;5.00;;;;;;;52.44;4.28;99609.16;5079544;28;20076;-67
2023/06/16 07:21:27;;;;;;;8.02;5.35;;;;;;;53.92;3.46;99606.28;5076659;28;20082;-59
2023/06/16 07:23:53;;;;;;;9.35;6.03;;;;;;;55.40;2.79;99603.31;5076212;28;20079;-60
2023/06/16 07:26:19;;;;;;;6.20;5.22;;;;;;;56.86;2.54;99604.72;5078235;28;20047;-60
2023/06/16 07:28:44;;;;;;;8.00;5.57;;;;;;;56.37;2.58;99591.13;5093979;28;20107;-61
2023/06/16 07:31:10;;;;;;;6.50;5.32;;;;;;;52.62;3.86;99579.66;5081534;28;20078;-59
2023/06/16 07:33:36;;;;;;;5.00;4.60;;;;;;;48.68;4.88;99589.78;5082919;28;20028;-62
2023/06/16 07:36:02;;;;;;;10.75;4.78;;;;;;;44.84;7.00;99595.50;5094175;28;20039;-61
2023/06/16 07:38:28;;;;;;;5.50;5.00;;;;;;;42.14;8.70;99559.03;5094018;28;20035;-61
2023/06/16 07:40:54;;;;;;;7.47;4.50;;;;;;;40.62;9.96;99587.28;5055957;28;20031;-60
2023/06/16 07:43:21;;;;;;;6.88;4.72;;;;;;;39.92;9.67;99586.47;5073445;28;20115;-61
2023/06/16 07:45:47;;;;;;;6.05;4.53;;;;;;;41.76;8.79;99593.69;5073308;28;20039;-61
2023/06/16 07:48:13;;;;;;;6.88;4.50;;;;;;;44.69;6.98;99579.34;5072885;28;20402;-58
2023/06/16 07:50:40;;;;;;;9.07;4.55;;;;;;;45.06;6.73;99584.81;5072476;28;20054;-62
2023/06/16 07:53:06;;;;;;;5.22;4.47;;;;;;;46.28;6.28;99583.19;5077399;28;20179;-62
2023/06/16 07:55:32;;;;;;;4.78;3.85;;;;;;;48.00;5.25;99588.53;5087175;28;20028;-65
2023/06/16 07:57:57;;;;;;;4.90;4.50;;;;;;;48.93;4.66;99590.03;5068910;28;20040;-60
2023/06/16 08:00:23;;;;;;;4.57;4.15;;;;;;;50.07;4.43;99590.44;5070334;28;20410;-57
2023/06/16 08:02:48;;;;;;;8.27;4.60;;;;;;;51.78;3.59;99590.66;5072663;28;20032;-60
2023/06/16 08:05:16;;;;;;;10.10;4.90;;;;;;;52.90;2.97;99587.22;5070826;28;20060;-60
2023/06/16 08:07:43;;;;;;;6.82;5.05;;;;;;;53.56;2.72;99589.53;5071426;28;20355;-62
2023/06/16 08:10:09;;;;;;;11.52;5.43;;;;;;;53.79;3.23;99586.81;5072170;28;20025;-59
2023/06/16 08:12:35;;;;;;;8.68;5.70;;;;;;;53.73;3.05;99582.00;5072992;28;20086;-60
2023/06/16 08:15:02;;;;;;;5.70;5.18;;;;;;;53.03;3.25;99581.00;5073345;28;20359;-61
2023/06/16 08:17:31;;;;;;;6.65;4.95;;;;;;;50.12;3.94;99570.13;5073982;28;20459;-64
2023/06/16 08:19:57;;;;;;;7.00;4.90;;;;;;;46.56;5.34;99558.69;5073014;28;20040;-60
2023/06/16 08:22:22;;;;;;;4.57;4.18;;;;;;;43.81;6.80;99566.75;5051580;28;20135;-61
2023/06/16 08:24:48;;;;;;;8.95;4.38;;;;;;;40.85;8.29;99572.25;5059176;28;20024;-62
2023/06/16 08:27:14;;;;;;;7.53;4.03;;;;;;;38.93;10.26;99575.25;5072634;28;20112;-61
2023/06/16 08:29:40;;;;;;;7.75;4.30;;;;;;;37.55;11.04;99578.97;5088566;28;20119;-68
2023/06/16 08:32:06;;;;;;;4.82;4.30;;;;;;;36.32;12.21;99577.22;5093035;28;20393;-62
2023/06/16 08:34:33;;;;;;;10.35;4.72;;;;;;;35.64;12.40;99575.34;5093404;28;20102;-70
2023/06/16 08:37:00;;;;;;;22.73;5.55;;;;;;;34.89;13.51;99554.44;5093106;28;20069;-60
2023/06/16 08:39:26;;;;;;;24.50;5.95;;;;;;;34.42;14.05;99556.78;5090479;28;20028;-62
2023/06/16 08:41:52;;;;;;;7.78;5.25;;;;;;;34.26;14.05;99569.97;5072133;28;20041;-59
2023/06/16 08:44:21;;;;;;;5.50;4.47;;;;;;;34.39;13.90;99566.53;5084716;28;20024;-63
2023/06/16 08:46:46;;;;;;;7.75;4.65;;;;;;;34.35;14.26;99565.47;5090127;28;20032;-62
2023/06/16 08:49:14;;;;;;;7.18;5.30;;;;;;;34.02;14.45;99559.59;5092009;28;20370;-59
2023/06/16 08:51:47;;;;;;;6.95;5.20;;;;;;;33.63;14.82;99575.84;5091855;28;20421;-62
2023/06/16 08:54:14;;;;;;;5.60;5.10;;;;;;;33.38;15.08;99567.59;5092563;28;20040;-60
2023/06/16 08:56:42;;;;;;;6.63;4.78;;;;;;;33.10;14.78;99573.47;5073401;28;20124;-60
2023/06/16 08:59:09;;;;;;;11.02;5.22;;;;;;;32.74;15.31;99566.03;5072622;28;20028;-61
2023/06/16 09:01:39;;;;;;;6.60;5.13;;;;;;;32.63;15.43;99572.69;5072020;28;20443;-61
2023/06/16 09:04:15;;;;;;;10.40;5.82;;;;;;;32.39;15.14;99558.53;5073070;28;20063;-63
2023/06/16 09:06:48;;;;;;;8.88;5.30;;;;;;;32.08;15.72;99564.88;5055121;28;20044;-61
2023/06/16 09:09:14;;;;;;;5.80;5.22;;;;;;;31.69;16.38;99568.03;5072637;28;20060;-63
2023/06/16 09:11:41;;;;;;;13.75;5.50;;;;;;;31.14;17.04;99568.31;5071747;28;20479;-61
2023/06/16 09:14:12;;;;;;;12.60;5.55;;;;;;;30.82;17.94;99567.25;5072296;28;20351;-65
2023/06/16 09:16:39;;;;;;;9.27;5.28;;;;;;;30.46;17.50;99558.66;5072633;28;20025;-60
2023/06/16 09:19:07;;;;;;;9.50;5.20;;;;;;;30.41;17.32;99576.03;5072403;28;20044;-62
2023/06/16 09:21:35;;;;;;;8.65;5.55;;;;;;;30.39;17.75;99569.09;5072027;28;20090;-65
2023/06/16 09:24:00;;;;;;;8.55;5.00;;;;;;;30.57;18.06;99556.81;5072452;28;20041;-60
2023/06/16 09:26:35;;;;;;;9.18;5.15;;;;;;;30.93;17.24;99559.88;5072231;28;20036;-60
2023/06/16 09:29:02;;;;;;;8.57;5.72;;;;;;;31.21;17.09;99560.63;5072710;28;20067;-60
2023/06/16 09:31:28;;;;;;;6.50;5.30;;;;;;;31.49;17.15;99553.00;5072504;28;20086;-61
2023/06/16 09:34:04;;;;;;;5.95;5.40;;;;;;;31.83;16.96;99551.78;5072113;28;20034;-62
2023/06/16 09:36:30;;;;;;;7.28;5.30;;;;;;;31.71;17.57;99540.91;5072458;28;20379;-61
2023/06/16 09:38:56;;;;;;;13.00;5.43;;;;;;;31.73;17.11;99541.47;5072404;28;20024;-58
2023/06/16 09:41:22;;;;;;;7.05;5.18;;;;;;;31.73;17.36;99550.63;5071623;28;20323;-60
2023/06/16 09:43:47;;;;;;;13.15;6.00;;;;;;;31.82;16.81;99552.88;5071978;28;20037;-60
2023/06/16 09:46:14;;;;;;;8.75;5.70;;;;;;;31.74;17.38;99557.81;5072464;28;20033;-60
2023/06/16 09:48:50;;;;;;;9.35;5.07;;;;;;;31.61;17.52;99552.78;5072388;28;20089;-58
2023/06/16 09:51:18;;;;;;;8.13;5.30;;;;;;;31.20;17.95;99543.19;5072168;28;20104;-58
2023/06/16 09:53:45;;;;;;;12.35;5.72;;;;;;;31.19;17.84;99544.28;5072256;28;20111;-58
2023/06/16 09:56:14;;;;;;;15.88;5.60;;;;;;;31.28;18.14;99539.09;5081638;28;20039;-59
2023/06/16 09:58:40;;;;;;;9.57;5.50;;;;;;;31.21;18.33;99513.63;5092627;28;20032;-59
2023/06/16 10:01:06;;;;;;;17.00;5.68;;;;;;;31.40;18.11;99543.59;5092125;28;20024;-60
2023/06/16 10:03:33;;;;;;;11.63;5.53;;;;;;;31.19;17.95;99544.28;5092470;28;20028;-60
2023/06/16 10:06:05;;;;;;;9.45;6.00;;;;;;;30.94;18.08;99540.25;5091341;28;20125;-59
2023/06/16 10:08:31;;;;;;;6.22;5.60;;;;;;;30.57;18.42;99516.22;5092712;28;20078;-57
2023/06/16 10:10:57;;;;;;;5.90;5.30;;;;;;;30.59;18.49;99526.97;5091436;28;20085;-59
2023/06/16 10:13:25;;;;;;;6.68;5.57;;;;;;;30.51;18.07;99537.44;5095689;28;20106;-61
2023/06/16 10:15:52;;;;;;;6.28;5.32;;;;;;;30.45;18.97;99535.72;5094812;28;20028;-60
2023/06/16 10:18:20;;;;;;;7.30;5.30;;;;;;;30.42;18.66;99529.88;5095419;28;20044;-61
2023/06/16 10:20:47;;;;;;;5.63;5.07;;;;;;;30.36;19.25;99529.84;5095554;28;20123;-58
2023/06/16 10:23:13;;;;;;;7.15;5.32;;;;;;;30.24;18.68;99526.41;5095878;28;20027;-59
2023/06/16 10:25:40;;;;;;;10.07;5.43;;;;;;;30.36;17.77;99505.00;5095542;28;20024;-61
2023/06/16 10:28:10;;;;;;;5.57;5.07;;;;;;;30.76;17.47;99522.16;5095750;28;20082;-61
2023/06/16 10:30:38;;;;;;;5.35;4.95;;;;;;;31.13;17.73;99522.41;5095331;28;20032;-60
2023/06/16 10:33:17;;;;;;;6.75;5.28;;;;;;;31.58;17.45;99529.25;5095120;28;20027;-61
2023/06/16 10:35:54;;;;;;;6.60;5.70;;;;;;;31.79;16.52;99504.44;5091260;28;20032;-63
2023/06/16 10:38:34;;;;;;;7.95;5.70;;;;;;;31.97;17.00;99513.34;5089735;28;20092;-61
2023/06/16 10:41:02;;;;;;;6.88;5.72;;;;;;;31.81;16.95;99512.47;5075066;28;20466;-60
2023/06/16 10:43:27;;;;;;;6.72;5.40;;;;;;;31.43;17.18;99476.66;5086209;28;20136;-64
2023/06/16 10:46:15;;;;;;;6.65;5.07;;;;;;;31.61;17.14;99514.03;5083076;28;20028;-59
2023/06/16 10:49:07;;;;;;;5.50;4.90;;;;;;;31.60;17.08;99516.00;5074867;28;20480;-56
2023/06/16 10:51:40;;;;;;;5.68;5.13;;;;;;;31.68;17.57;99511.03;5080802;28;20501;-60
2023/06/16 10:54:08;;;;;;;5.72;5.10;;;;;;;31.69;17.10;99501.63;5075002;28;20555;-62
2023/06/16 10:57:05;;;;;;;5.97;5.47;;;;;;;31.90;17.07;99500.59;5073596;28;20064;-61
2023/06/16 11:00:01;;;;;;;6.15;5.00;;;;;;;31.81;17.96;99505.00;5075005;28;20119;-60
2023/06/16 11:02:34;;;;;;;7.40;5.15;;;;;;;31.69;17.72;99507.97;5074796;28;20025;-59
2023/06/16 11:05:12;;;;;;;5.55;5.05;;;;;;;31.77;17.36;99498.34;5076311;28;20033;-61
2023/06/16 11:08:08;;;;;;;10.57;5.18;;;;;;;31.75;17.33;99497.75;5074475;28;20024;-63
2023/06/16 11:11:06;;;;;;;8.55;5.00;;;;;;;31.77;16.95;99496.41;5074897;28;20036;-61
2023/06/16 11:13:38;;;;;;;8.73;5.60;;;;;;;31.36;17.26;99488.81;5031923;28;20459;-61
2023/06/16 11:16:04;;;;;;;5.65;5.15;;;;;;;30.93;17.57;99463.94;5067552;28;20039;-61
2023/06/16 11:18:33;;;;;;;5.78;5.22;;;;;;;31.06;17.61;99487.50;5076150;28;20543;-62
2023/06/16 11:21:06;;;;;;;14.13;5.43;;;;;;;30.88;18.37;99494.34;5083545;28;20039;-53
2023/06/16 11:23:32;;;;;;;11.90;5.43;;;;;;;30.58;19.11;99478.34;5073020;28;20332;-56
2023/06/16 11:26:03;;;;;;;11.95;5.28;;;;;;;30.64;19.13;99493.91;5074172;28;20028;-60
2023/06/16 11:28:29;;;;;;;9.48;5.13;;;;;;;30.47;18.92;99491.25;5073187;28;20086;-61
2023/06/16 11:30:55;;;;;;;9.40;5.53;;;;;;;30.36;18.52;99495.88;5074845;28;20025;-59
2023/06/16 11:33:22;;;;;;;10.98;5.50;;;;;;;30.34;18.63;99484.25;5073316;28;20113;-51